Terminal Aerodrome Forecast
Issued by NWS Green Bay, WI

Home | Current Version | Previous Version | Graphics & Text | Print | Product List | Glossary On
Versions: 1 2 3 4 5 6 7 8 9 10 11 12 13 14 15 16 17 18 19 20 21 22 23 24 25 26 27 28 29 30 31 32 33 34
000
FTUS43 KGRB 280713 AAB
TAFGRB
TAF AMD
KGRB 280713Z 2807/2906 05009KT P6SM VCSH SCT006 OVC035
      TEMPO 2807/2811 3SM SHRA BR BKN020
     FM281100 03007KT P6SM SCT009 OVC035
      TEMPO 2811/2814 4SM -SHRA BR BKN009
     FM281400 05009KT P6SM VCSH BKN035
     FM282000 04010KT P6SM BKN040
     FM290100 03007KT P6SM SCT040 BKN120=

USA.gov is the U.S. government's official web portal to all federal, state and local government web resources and services.